Time;durP1;ratioP1;P1;durP2;ratioP2;P2;SDS_P1;SDS_P2;PMS_P1;PMS_P2;Temp;Humidity;BMP_temperature;BMP_pressure;BME280_temperature;BME280_humidity;BME280_pressure;Samples;Min_cycle;Max_cycle;Signal;HPM_P1;HPM_P2
2022/04/17 00:01:16;;;;;;;1.53;1.43;;;12.50;35.40;;;12.99;29.50;99923.06;4924031;28;123612;-88
2022/04/17 00:04:40;;;;;;;1.93;1.30;;;12.40;35.40;;;12.97;29.37;99924.47;4919064;28;122366;-89
2022/04/17 00:07:07;;;;;;;2.63;2.10;;;12.40;35.60;;;12.90;29.55;99918.50;4929970;28;119270;-88
2022/04/17 00:09:34;;;;;;;2.03;1.83;;;12.30;35.60;;;12.86;29.73;99923.81;4944442;28;118765;-88
2022/04/17 00:12:02;;;;;;;2.33;1.90;;;12.30;35.70;;;12.81;29.48;99924.72;4911941;28;123321;-88
2022/04/17 00:14:28;;;;;;;2.03;1.83;;;12.30;35.80;;;12.81;30.33;99926.66;4936515;28;123548;-89
2022/04/17 00:16:55;;;;;;;2.10;1.83;;;12.30;35.90;;;12.75;29.81;99923.13;4950245;28;118636;-88
2022/04/17 00:19:22;;;;;;;1.80;1.60;;;12.20;35.90;;;12.70;30.12;99920.44;4931392;28;118717;-88
2022/04/17 00:21:49;;;;;;;2.43;2.20;;;12.20;36.00;;;12.68;30.31;99921.84;4935698;28;123506;-89
2022/04/17 00:24:16;;;;;;;2.60;2.00;;;12.20;36.10;;;12.67;30.31;99923.81;4931835;28;124502;-90
2022/04/17 00:26:42;;;;;;;3.40;1.97;;;12.10;36.20;;;12.64;30.09;99927.19;4946288;28;118713;-90
2022/04/17 00:29:29;;;;;;;5.17;2.23;;;12.10;36.80;;;12.60;30.56;99915.88;4934313;28;117210;-89
2022/04/17 00:31:57;;;;;;;2.20;1.97;;;12.10;36.40;;;12.58;30.31;99906.19;4929512;28;124108;-88
2022/04/17 00:34:25;;;;;;;3.30;2.20;;;12.00;36.50;;;12.55;30.42;99906.81;4933354;28;121756;-88
2022/04/17 00:36:53;;;;;;;2.37;2.10;;;12.00;36.70;;;12.52;30.35;99907.38;4947457;28;120079;-87
2022/04/17 00:39:20;;;;;;;2.53;1.83;;;12.00;36.80;;;12.51;30.64;99905.72;4912165;28;118455;-89
2022/04/17 00:41:48;;;;;;;2.87;2.20;;;11.90;36.90;;;12.50;30.96;99901.31;4931103;28;123995;-88
2022/04/17 00:44:17;;;;;;;2.63;1.70;;;11.90;37.00;;;12.45;31.09;99895.84;4928333;28;123538;-89
2022/04/17 00:47:21;;;;;;;3.00;2.40;;;11.90;37.10;;;12.37;30.80;99889.84;4922852;28;117132;-88
2022/04/17 00:50:08;;;;;;;2.47;2.00;;;11.90;37.20;;;12.33;30.85;99888.78;4948016;28;118744;-88
2022/04/17 00:52:37;;;;;;;1.83;1.70;;;11.80;37.20;;;12.30;30.95;99894.09;4918118;28;122678;-88
2022/04/17 00:55:22;;;;;;;2.27;2.07;;;11.80;37.30;;;12.29;30.94;99898.81;4948873;28;123570;-88
2022/04/17 00:58:26;;;;;;;2.50;2.00;;;11.70;37.30;;;12.22;31.05;99881.72;4930237;28;118583;-88
2022/04/17 01:01:34;;;;;;;1.93;1.73;;;11.70;37.40;;;12.17;31.33;99890.13;4948819;28;118618;-89
2022/04/17 01:04:39;;;;;;;2.00;1.80;;;11.70;37.50;;;12.12;31.50;99876.31;4958465;28;123823;-89
2022/04/17 01:07:10;;;;;;;2.67;1.90;;;11.60;37.50;;;12.07;31.46;99873.63;4949584;28;123667;-88
2022/04/17 01:09:57;;;;;;;2.00;1.80;;;11.60;37.60;;;12.01;31.17;99880.31;4952632;28;119048;-89
2022/04/17 01:16:25;;;;;;;3.70;2.07;;;11.50;37.70;;;11.84;31.57;99881.59;4952964;28;124606;-89
2022/04/17 01:19:13;;;;;;;2.43;1.83;;;11.30;37.70;;;11.79;31.52;99873.34;4930688;28;123645;-89
2022/04/17 01:22:19;;;;;;;2.73;1.83;;;11.30;37.90;;;11.71;32.08;99877.59;4949178;28;118839;-88
2022/04/17 01:31:14;;;;;;;1.50;1.40;;;11.10;38.10;;;11.63;31.93;99869.09;4954603;28;124693;-88
2022/04/17 01:34:00;;;;;;;1.73;1.53;;;11.20;38.20;;;11.65;32.18;99864.91;4952778;28;120581;-89
2022/04/17 01:36:27;;;;;;;2.87;2.13;;;11.10;38.20;;;11.60;32.05;99855.84;4919209;28;120664;-88
2022/04/17 01:38:53;;;;;;;2.60;1.87;;;11.00;38.20;;;11.54;31.90;99866.13;4949516;28;123511;-88
2022/04/17 01:45:02;;;;;;;2.37;1.83;;;11.00;38.40;;;11.41;32.49;99855.75;4953635;28;120227;-88
2022/04/17 01:51:12;;;;;;;3.47;2.00;;;10.80;38.50;;;11.14;32.75;99845.22;4935289;28;124644;-88
2022/04/17 01:57:20;;;;;;;3.07;2.27;;;10.60;38.60;;;11.02;32.46;99849.22;4936889;28;120395;-88
2022/04/17 02:00:46;;;;;;;1.60;1.50;;;10.60;38.90;;;10.98;32.86;99847.31;4946230;28;119874;-88
2022/04/17 02:04:09;;;;;;;1.90;1.80;;;10.50;38.90;;;10.90;33.04;99847.91;4951214;28;124096;-88
2022/04/17 02:07:14;;;;;;;2.37;1.90;;;10.40;38.90;;;10.85;33.01;99843.25;4952381;28;123855;-88
2022/04/17 02:10:21;;;;;;;5.03;2.33;;;10.40;39.30;;;10.84;33.45;99849.91;4953550;28;119006;-88
2022/04/17 02:12:48;;;;;;;2.13;1.90;;;10.30;39.50;;;10.79;33.19;99844.41;4951552;28;119080;-88
2022/04/17 02:15:15;;;;;;;3.00;1.70;;;10.30;40.20;;;10.75;33.23;99832.28;4950789;28;124810;-88
2022/04/17 02:17:43;;;;;;;2.80;2.10;;;10.30;39.70;;;10.71;33.38;99840.31;4921182;28;121685;-88
2022/04/17 02:20:11;;;;;;;2.80;2.20;;;10.20;39.80;;;10.67;33.59;99838.44;4937888;28;117274;-88
2022/04/17 02:26:20;;;;;;;2.63;2.20;;;10.10;40.20;;;10.47;33.99;99842.97;4937403;28;125182;-87
2022/04/17 02:31:24;;;;;;;1.93;1.70;;;10.00;40.40;;;10.49;33.65;99839.94;5953548;23;98841;-85
2022/04/17 02:34:13;;;;;;;2.97;1.80;;;9.80;42.00;;;10.53;34.22;99829.94;4942134;28;118070;-88
2022/04/17 02:40:22;;;;;;;2.00;1.77;;;9.90;41.30;;;10.56;34.26;99829.41;4959358;28;124928;-87
2022/04/17 02:42:49;;;;;;;2.80;2.23;;;11.10;42.00;;;10.57;34.22;99822.75;4959666;28;119193;-87
2022/04/17 02:49:04;;;;;;;2.33;1.90;;;8.50;40.30;;;10.59;34.24;99807.53;4959915;28;124479;-88
2022/04/17 02:51:51;;;;;;;1.77;1.67;;;10.10;41.80;;;10.54;34.08;99796.50;4942639;28;123167;-88
2022/04/17 02:58:00;;;;;;;2.90;1.97;;;7.70;39.80;;;10.39;34.34;99804.91;4959523;28;119916;-86
2022/04/17 03:06:19;;;;;;;3.53;2.53;;;9.30;43.40;;;10.17;34.96;99792.28;4958535;28;119791;-88
2022/04/17 03:12:28;;;;;;;4.33;2.53;;;7.60;40.60;;;10.02;34.89;99781.34;4959986;28;125276;-77
2022/04/17 03:14:57;;;;;;;2.60;2.13;;;7.20;41.80;;;9.99;35.39;99781.91;4959596;28;123457;-89
2022/04/17 03:21:06;;;;;;;2.20;2.00;;;8.10;41.70;;;9.83;35.60;99794.97;4960362;28;119959;-77
2022/04/17 04:15:08;;;;;;;1.80;1.70;;;8.80;44.30;;;9.29;36.77;99796.56;5383527;23;98348;-75
2022/04/17 04:17:35;;;;;;;1.97;1.83;;;10.20;45.20;;;9.28;36.50;99786.59;4938813;28;119990;-85
2022/04/17 04:24:40;;;;;;;2.17;1.93;;;7.50;43.20;;;9.40;36.51;99799.25;4958342;28;126366;-86
2022/04/17 04:34:31;;;;;;;1.80;1.70;;;9.00;44.40;;;9.45;36.56;99799.25;4958600;28;120827;-84
2022/04/17 04:40:40;;;;;;;2.67;1.90;;;6.20;42.20;;;9.50;36.36;99790.97;4958137;28;124631;-84
2022/04/17 04:46:51;;;;;;;2.63;2.07;;;8.90;44.40;;;9.55;36.52;99798.41;4958163;28;119846;-87
2022/04/17 04:53:00;;;;;;;2.37;1.80;;;6.50;42.50;;;9.51;36.54;99806.41;4957989;28;124809;-84
2022/04/17 04:59:11;;;;;;;2.73;2.23;;;7.10;43.10;;;9.43;36.74;99810.56;4957862;28;120008;-79
2022/04/17 05:05:20;;;;;;;3.50;2.73;;;6.30;42.80;;;9.28;36.93;99808.66;4957829;28;124755;-81
2022/04/17 05:07:47;;;;;;;2.50;2.20;;;8.80;46.50;;;9.29;37.10;99813.09;4957885;28;118482;-78
2022/04/17 05:10:34;;;;;;;2.77;2.27;;;7.90;47.30;;;9.27;36.85;99803.44;4940972;28;117450;-80
2022/04/17 05:13:58;;;;;;;3.07;2.27;;;6.60;43.30;;;9.23;37.00;99800.41;4954262;28;123886;-89
2022/04/17 05:20:08;;;;;;;2.70;1.97;;;6.70;43.70;;;9.17;37.04;99798.78;4938222;28;120376;-82
2022/04/17 05:26:18;;;;;;;3.03;2.07;;;6.10;43.20;;;9.28;36.90;99802.34;4938281;28;124194;-88
2022/04/17 05:32:27;;;;;;;2.10;1.80;;;8.20;45.00;;;9.39;36.99;99805.88;4937391;28;121865;-84
2022/04/17 05:38:36;;;;;;;2.47;2.00;;;9.80;46.50;;;9.47;37.33;99811.66;4938202;28;125123;-82
2022/04/17 05:42:01;;;;;;;3.63;2.30;;;9.60;47.80;;;9.54;37.17;99802.25;4938152;28;123226;-86
2022/04/17 05:48:10;;;;;;;2.50;2.17;;;7.10;44.00;;;9.63;37.02;99803.34;4938237;28;119941;-86
2022/04/17 05:54:19;;;;;;;2.23;2.03;;;9.20;45.50;;;9.67;36.81;99805.25;4936732;28;124139;-84
2022/04/17 05:56:46;;;;;;;2.40;1.90;;;7.40;44.80;;;9.74;36.84;99808.53;4920745;28;118003;-87
2022/04/17 05:59:32;;;;;;;2.40;1.83;;;11.60;48.80;;;9.81;36.63;99812.94;4934555;28;118371;-88
2022/04/17 06:05:41;;;;;;;2.43;2.23;;;7.40;43.80;;;9.89;36.81;99820.63;4939736;28;124319;-88
2022/04/17 06:08:27;;;;;;;2.23;2.03;;;10.60;46.00;;;9.93;36.71;99816.19;4939858;28;118936;-88
2022/04/17 06:14:35;;;;;;;3.33;2.07;;;8.40;44.40;;;10.00;36.30;99813.13;4946131;28;125086;-90
2022/04/17 06:20:44;;;;;;;2.40;1.93;;;9.40;45.10;;;10.08;36.41;99807.00;4959857;28;119674;-88
2022/04/17 06:26:52;;;;;;;3.73;2.13;;;9.50;44.80;;;10.20;36.01;99793.66;4958470;28;124413;-89
2022/04/17 06:29:19;;;;;;;1.93;1.80;;;9.60;44.90;;;10.33;36.18;99798.59;4941564;28;122907;-89
2022/04/17 06:32:07;;;;;;;3.63;1.60;;;9.60;44.90;;;10.48;35.89;99796.84;4954783;28;121035;-89
2022/04/17 06:38:16;;;;;;;2.40;2.17;;;9.90;44.80;;;10.68;35.44;99784.81;4939083;28;124515;-89
2022/04/17 06:40:45;;;;;;;2.00;1.80;;;10.00;43.70;;;10.75;35.36;99793.59;4943095;28;123856;-89
2022/04/17 06:44:11;;;;;;;2.40;2.00;;;10.10;43.60;;;10.86;35.19;99789.63;4955385;28;119203;-89
2022/04/17 06:47:16;;;;;;;4.23;1.97;;;10.10;43.50;;;10.96;35.14;99788.69;4954789;28;119043;-90
2022/04/17 06:57:06;;;;;;;4.20;2.50;;;10.40;43.10;;;11.18;35.19;99777.16;4937344;28;119969;-88
2022/04/17 06:59:32;;;;;;;3.50;2.50;;;10.50;43.20;;;11.29;34.85;99784.22;4954995;28;118954;-89
2022/04/17 07:02:01;;;;;;;2.57;2.17;;;10.60;43.20;;;11.39;34.82;99773.06;4940409;28;122472;-89
2022/04/17 07:04:28;;;;;;;2.47;2.07;;;10.70;43.00;;;11.52;34.91;99777.03;4929443;28;123439;-89
2022/04/17 07:11:00;;;;;;;6.03;2.37;;;10.90;43.00;;;11.69;34.29;99771.03;4945675;28;119433;-89
2022/04/17 07:13:29;;;;;;;3.53;2.20;;;11.00;42.60;;;11.74;34.41;99765.44;4948176;28;124889;-89
2022/04/17 07:19:39;;;;;;;3.93;2.20;;;11.10;42.40;;;11.89;34.00;99778.28;4942618;28;119832;-89
2022/04/17 07:22:45;;;;;;;2.37;2.07;;;11.20;42.20;;;11.97;34.15;99761.00;4942799;28;121082;-89
2022/04/17 07:25:13;;;;;;;2.87;1.80;;;11.30;42.30;;;12.09;34.29;99763.31;4934168;28;123612;-90
2022/04/17 07:28:18;;;;;;;2.20;1.70;;;11.40;42.50;;;12.25;34.06;99753.69;4933829;28;124495;-89
2022/04/17 07:31:04;;;;;;;3.53;1.73;;;11.50;42.40;;;12.40;33.64;99749.84;4929412;28;119911;-90
2022/04/17 07:33:32;;;;;;;2.27;1.80;;;11.60;42.20;;;12.47;33.26;99744.75;4948655;28;119644;-89
2022/04/17 07:36:20;;;;;;;1.97;1.60;;;11.70;41.80;;;12.53;32.99;99739.94;4950999;28;123676;-89
2022/04/17 07:39:05;;;;;;;1.53;1.43;;;11.80;41.60;;;12.63;32.75;99730.63;4929742;28;123458;-91
2022/04/17 07:41:53;;;;;;;2.50;2.13;;;11.90;41.50;;;12.67;32.60;99729.72;4930834;28;119057;-88
2022/04/17 07:44:58;;;;;;;5.00;2.03;;;11.90;40.80;;;12.69;32.41;99729.44;4939900;28;118036;-90
2022/04/17 07:47:26;;;;;;;3.30;2.00;;;12.00;40.60;;;12.70;32.55;99715.25;4910151;28;121974;-89
2022/04/17 07:50:52;;;;;;;2.90;2.40;;;12.00;40.70;;;12.71;32.70;99733.53;4947344;28;123143;-87
2022/04/17 07:53:21;;;;;;;2.33;1.90;;;12.00;40.80;;;12.78;33.43;99717.31;4931033;28;118810;-88
2022/04/17 07:55:48;;;;;;;2.37;1.87;;;12.10;41.90;;;12.90;33.22;99729.91;4895427;28;117104;-88
2022/04/17 07:58:54;;;;;;;3.47;1.70;;;12.20;41.50;;;13.02;33.23;99728.25;4924990;28;123315;-88
2022/04/17 08:01:23;;;;;;;2.90;1.60;;;12.30;41.80;;;13.14;31.85;99719.44;4919098;28;122952;-86
2022/04/17 08:03:50;;;;;;;3.60;2.10;;;12.40;40.90;;;13.19;31.73;99727.69;4934257;28;119368;-87
2022/04/17 08:06:20;;;;;;;5.63;1.40;;;12.40;39.90;;;13.31;31.84;99723.59;4927689;28;119484;-88
2022/04/17 08:08:51;;;;;;;2.40;1.90;;;12.70;40.30;;;13.42;31.33;99725.84;4937766;28;123581;-88
2022/04/17 08:11:18;;;;;;;1.90;1.57;;;12.70;39.60;;;13.52;31.33;99716.50;4919397;28;123128;-88
2022/04/17 08:13:46;;;;;;;1.63;1.53;;;12.80;39.60;;;13.62;30.99;99712.66;4929596;28;119382;-87
2022/04/17 08:16:14;;;;;;;2.30;1.73;;;12.90;39.20;;;13.65;30.57;99714.84;4917394;28;117988;-89
2022/04/17 08:19:18;;;;;;;3.60;1.83;;;12.90;38.50;;;13.67;30.49;99707.84;4879473;28;122187;-87
2022/04/17 08:21:45;;;;;;;2.17;1.80;;;12.00;37.70;;;13.72;30.30;99711.63;4895695;28;124157;-87
2022/04/17 08:24:32;;;;;;;3.13;2.10;;;13.00;38.00;;;13.75;30.35;99711.00;4877911;28;119581;-89
2022/04/17 08:27:00;;;;;;;2.20;1.60;;;13.00;38.20;;;13.80;30.74;99714.50;4887423;28;118079;-87
2022/04/17 08:29:46;;;;;;;2.47;1.77;;;13.10;38.60;;;13.90;30.75;99714.28;4884578;28;123456;-88
2022/04/17 08:32:33;;;;;;;2.90;1.70;;;13.20;38.80;;;13.93;30.24;99707.28;4891075;28;122814;-89
2022/04/17 08:34:59;;;;;;;2.40;1.57;;;13.20;38.10;;;13.91;30.05;99704.78;4881929;28;119054;-88
2022/04/17 08:37:47;;;;;;;2.13;1.60;;;13.20;37.90;;;13.93;30.04;99708.09;4880879;28;118388;-87
2022/04/17 08:43:58;;;;;;;2.37;1.77;;;13.30;37.90;;;14.00;30.42;99696.56;4887978;28;124429;-89
2022/04/17 08:46:26;;;;;;;2.27;1.80;;;13.50;38.40;;;14.02;30.01;99693.44;4882504;28;119502;-89
2022/04/17 08:49:12;;;;;;;3.20;1.87;;;13.40;37.60;;;13.98;30.08;99681.34;4861285;28;117760;-87
2022/04/17 08:51:39;;;;;;;4.87;2.00;;;13.40;37.60;;;13.94;30.07;99675.56;4895570;28;124368;-89
2022/04/17 08:54:25;;;;;;;2.60;1.90;;;13.30;37.40;;;13.95;29.97;99671.66;4888419;28;123659;-89
2022/04/17 08:56:53;;;;;;;2.27;1.30;;;13.40;37.70;;;13.98;30.32;99665.47;4903515;28;118578;-88
2022/04/17 08:59:21;;;;;;;1.50;1.30;;;13.40;38.00;;;14.04;30.33;99658.66;4912628;28;119082;-90
2022/04/17 09:01:49;;;;;;;2.37;1.50;;;13.40;38.00;;;14.09;30.18;99652.97;4903573;28;122192;-88
2022/04/17 09:04:53;;;;;;;3.43;1.83;;;13.40;37.90;;;14.14;30.32;99644.53;4905774;28;123228;-89
2022/04/17 09:07:56;;;;;;;1.67;1.50;;;13.50;38.10;;;14.18;30.06;99635.56;4912204;28;118503;-89
2022/04/17 09:10:27;;;;;;;1.90;1.50;;;13.50;37.60;;;14.16;29.93;99633.09;4920763;28;118244;-89
2022/04/17 09:12:57;;;;;;;2.20;1.80;;;14.10;38.10;;;14.17;29.78;99631.13;4897650;28;122900;-89
2022/04/17 09:15:47;;;;;;;1.73;1.63;;;13.50;37.60;;;14.17;29.96;99625.59;4907026;28;124160;-89
2022/04/17 09:18:33;;;;;;;2.03;1.50;;;13.60;37.60;;;14.22;30.16;99628.25;4939483;28;119907;-89
2022/04/17 09:21:32;;;;;;;2.70;1.63;;;13.60;37.80;;;14.28;29.83;99615.84;4940692;28;119993;-88
2022/04/17 09:24:18;;;;;;;1.47;1.20;;;13.70;37.70;;;14.31;29.84;99615.19;4917966;28;123450;-88
2022/04/17 09:27:10;;;;;;;2.40;1.63;;;13.70;37.60;;;14.35;29.42;99596.75;4927824;28;123835;-89
2022/04/17 09:29:58;;;;;;;2.07;1.87;;;13.70;37.30;;;14.33;29.08;99590.69;4941872;28;118754;-89
2022/04/17 09:32:28;;;;;;;2.50;1.70;;;13.70;36.40;;;14.36;28.97;99587.28;4941296;28;118918;-89
2022/04/17 09:34:57;;;;;;;2.97;1.67;;;13.70;36.20;;;14.42;28.93;99594.34;4928985;28;123845;-89
2022/04/17 09:37:27;;;;;;;2.00;1.50;;;13.80;36.30;;;14.52;29.00;99591.31;4945096;28;123555;-89
2022/04/17 09:40:07;;;;;;;2.83;1.60;;;13.90;36.30;;;14.61;28.98;99587.75;4929613;28;118835;-89
2022/04/17 09:43:10;;;;;;;3.27;1.90;;;14.00;36.40;;;14.67;28.54;99590.09;4932388;28;119189;-89
2022/04/17 09:46:08;;;;;;;2.87;1.90;;;14.00;36.00;;;14.70;27.58;99596.97;4947319;28;123826;-88
2022/04/17 09:52:16;;;;;;;3.90;1.90;;;14.00;34.60;;;14.62;28.16;99590.22;4950224;28;119974;-89
2022/04/17 09:54:45;;;;;;;1.97;1.60;;;14.00;35.00;;;14.65;28.01;99578.47;4932559;28;116898;-89
2022/04/17 09:58:09;;;;;;;1.63;1.53;;;14.10;35.00;;;14.64;28.21;99576.00;4945394;28;123619;-90
2022/04/17 10:01:18;;;;;;;4.93;1.87;;;14.10;35.00;;;14.64;28.32;99570.44;4932714;28;122605;-90
2022/04/17 10:03:50;;;;;;;1.83;1.73;;;14.10;35.30;;;14.69;28.49;99584.19;4933200;28;120019;-90
2022/04/17 10:07:15;;;;;;;2.70;1.90;;;14.10;35.70;;;14.71;28.14;99571.59;4912986;28;118147;-91
2022/04/17 10:09:46;;;;;;;1.63;1.53;;;14.20;35.00;;;14.74;27.99;99564.59;4940622;28;123506;-88
2022/04/17 10:12:50;;;;;;;4.43;2.00;;;14.20;34.90;;;14.76;28.10;99565.91;4918719;28;123961;-88
2022/04/17 10:15:19;;;;;;;3.50;1.70;;;14.20;34.80;;;14.81;27.90;99559.38;4944787;28;119432;-88
2022/04/17 10:17:48;;;;;;;1.90;1.27;;;14.30;34.90;;;14.87;27.81;99560.88;4931089;28;119272;-89
2022/04/17 10:20:16;;;;;;;2.47;1.70;;;14.30;34.70;;;14.92;27.88;99557.94;4944778;28;124136;-88
2022/04/17 10:22:43;;;;;;;2.23;1.70;;;14.30;34.70;;;14.93;27.79;99559.56;4920316;28;123114;-89
2022/04/17 10:25:11;;;;;;;2.87;1.73;;;14.40;34.40;;;14.98;27.52;99555.81;4912042;28;117207;-89
2022/04/17 10:27:59;;;;;;;2.40;1.80;;;14.40;34.70;;;14.99;27.71;99551.88;4928761;28;118929;-90
2022/04/17 10:31:06;;;;;;;5.20;1.77;;;14.50;34.20;;;15.00;27.60;99546.00;4909585;28;122850;-90
2022/04/17 10:34:21;;;;;;;1.27;1.10;;;14.50;34.30;;;15.08;27.92;99551.94;4933602;28;123563;-89
2022/04/17 10:37:32;;;;;;;3.53;1.90;;;14.50;34.70;;;15.19;26.98;99553.25;4894264;28;117499;-90
2022/04/17 10:40:18;;;;;;;2.40;1.50;;;14.60;34.50;;;15.27;27.41;99546.06;4905998;28;116817;-90
2022/04/17 10:43:01;;;;;;;1.83;1.47;;;14.60;34.40;;;15.34;27.50;99540.81;4936705;28;124832;-88
2022/04/17 10:45:31;;;;;;;2.23;1.47;;;14.70;34.50;;;15.41;27.29;99533.63;4919733;28;123674;-88
2022/04/17 10:49:02;;;;;;;1.90;1.50;;;14.70;34.40;;;15.49;26.80;99529.22;4921127;28;119937;-89
2022/04/17 10:51:55;;;;;;;1.53;1.37;;;14.90;33.70;;;15.53;26.13;99521.84;4935032;28;119427;-90
2022/04/17 10:54:57;;;;;;;2.13;1.30;;;14.90;32.70;;;15.58;26.40;99509.69;4924499;28;123140;-89
2022/04/17 10:57:26;;;;;;;2.47;1.50;;;15.00;33.00;;;15.67;26.83;99516.09;4925847;28;123579;-90
2022/04/17 11:00:28;;;;;;;2.00;1.20;;;15.20;33.70;;;15.82;26.68;99512.81;4938808;28;118136;-88
2022/04/17 11:03:22;;;;;;;1.57;1.43;;;15.20;33.90;;;15.96;26.33;99509.88;4908427;28;117834;-88
2022/04/17 11:06:30;;;;;;;1.93;1.40;;;15.40;33.30;;;16.07;26.13;99500.00;4904363;28;122300;-89
2022/04/17 11:09:41;;;;;;;3.37;2.00;;;15.40;32.70;;;16.18;25.73;99491.28;4907552;28;123054;-89
2022/04/17 11:12:10;;;;;;;2.37;1.50;;;15.60;32.40;;;16.28;25.43;99494.53;4927744;28;119951;-89
2022/04/17 11:14:40;;;;;;;2.17;1.67;;;15.60;32.10;;;16.38;25.34;99482.16;4939908;28;119708;-88
2022/04/17 11:17:08;;;;;;;2.97;1.80;;;15.70;32.00;;;16.48;24.98;99487.38;4921029;28;122437;-89
2022/04/17 11:20:00;;;;;;;1.57;1.40;;;15.70;31.40;;;16.57;24.85;99490.13;4920236;28;123144;-89
2022/04/17 11:22:45;;;;;;;1.77;1.43;;;16.00;31.30;;;16.67;24.95;99488.94;4904364;28;117253;-89
2022/04/17 11:28:59;;;;;;;1.60;1.30;;;16.20;30.30;;;16.86;23.84;99486.56;4931932;28;123578;-88
2022/04/17 11:31:33;;;;;;;2.23;1.63;;;16.20;29.90;;;16.94;23.65;99470.91;4934958;28;124033;-89
2022/04/17 11:34:01;;;;;;;1.73;1.50;;;16.40;29.80;;;17.05;23.87;99466.56;4932224;28;118528;-89
2022/04/17 11:36:28;;;;;;;1.67;1.50;;;16.40;30.20;;;17.20;24.22;99463.19;4915169;28;118148;-91
2022/04/17 11:38:55;;;;;;;1.40;1.30;;;16.60;30.50;;;17.37;23.95;99466.97;4923005;28;123348;-89
2022/04/17 11:42:00;;;;;;;2.03;1.50;;;16.70;30.50;;;17.50;23.67;99449.13;4919268;28;123822;-90
2022/04/17 11:44:27;;;;;;;1.30;1.20;;;16.90;30.00;;;17.64;23.50;99449.63;4910232;28;118421;-88
2022/04/17 11:46:53;;;;;;;2.67;1.57;;;17.00;30.00;;;17.75;23.18;99443.63;4909084;28;118930;-91
2022/04/17 11:49:22;;;;;;;1.90;1.70;;;17.10;29.70;;;17.83;23.46;99429.56;4902383;28;123733;-90
2022/04/17 11:55:36;;;;;;;1.77;1.50;;;17.30;30.10;;;18.08;22.89;99429.63;4923755;28;119432;-89
2022/04/17 11:58:04;;;;;;;1.93;1.73;;;17.40;29.40;;;18.14;23.01;99427.44;4919338;28;118623;-90
2022/04/17 12:00:31;;;;;;;3.00;1.90;;;17.50;29.60;;;18.21;22.57;99433.25;4923709;28;122887;-89
2022/04/17 12:03:03;;;;;;;1.53;1.20;;;17.60;29.10;;;18.29;21.99;99429.53;4922564;28;123898;-90
2022/04/17 12:05:32;;;;;;;1.40;1.23;;;17.60;28.50;;;18.37;22.06;99436.19;4906033;28;120151;-90
2022/04/17 12:08:19;;;;;;;1.67;1.30;;;17.70;28.50;;;18.46;22.14;99429.31;4906317;28;119067;-90
2022/04/17 12:10:53;;;;;;;1.40;1.20;;;17.80;28.50;;;18.54;21.96;99430.38;4920257;28;124215;-90
2022/04/17 12:13:21;;;;;;;1.50;1.30;;;17.90;28.20;;;18.60;21.89;99428.16;4921949;28;123920;-88
2022/04/17 12:15:59;;;;;;;2.07;1.50;;;18.00;28.10;;;18.73;22.06;99421.38;4916286;28;118554;-90
2022/04/17 12:18:27;;;;;;;1.67;1.50;;;18.10;28.40;;;18.85;21.71;99412.97;4931308;28;118300;-90
2022/04/17 12:20:58;;;;;;;1.60;1.40;;;18.20;28.10;;;18.93;21.32;99400.00;4911690;28;124111;-91
2022/04/17 12:23:25;;;;;;;1.80;1.40;;;18.30;27.70;;;18.98;21.18;99399.78;4929282;28;124047;-92
2022/04/17 12:25:53;;;;;;;3.17;1.50;;;18.30;28.00;;;19.04;21.77;99398.34;4929613;28;120294;-91
2022/04/17 12:28:21;;;;;;;1.70;1.40;;;18.40;28.10;;;19.18;21.71;99393.19;4907396;28;119076;-90
2022/04/17 12:30:49;;;;;;;3.83;1.80;;;18.50;28.30;;;19.26;21.34;99391.38;4926424;28;124694;-92
2022/04/17 12:34:26;;;;;;;2.53;1.73;;;18.60;27.70;;;19.32;21.24;99392.78;4898799;28;123779;-90
2022/04/17 12:36:53;;;;;;;1.73;1.60;;;18.70;27.90;;;19.46;21.42;99391.53;4875313;28;119518;-90
2022/04/17 12:39:32;;;;;;;1.73;1.50;;;18.80;27.80;;;19.59;21.27;99373.50;4913666;28;118907;-89
2022/04/17 12:42:15;;;;;;;3.10;1.53;;;18.90;28.00;;;19.69;20.76;99372.16;4928249;28;123496;-92
2022/04/17 12:44:41;;;;;;;3.00;2.33;;;19.00;27.20;;;19.72;20.45;99375.09;4903630;28;124403;-91
2022/04/17 12:47:15;;;;;;;3.20;1.60;;;19.10;27.10;;;19.72;20.74;99357.44;4917898;28;118475;-91
2022/04/17 12:49:42;;;;;;;1.93;1.60;;;19.10;27.30;;;19.79;20.78;99363.22;4919318;28;118952;-91
2022/04/17 12:52:19;;;;;;;1.53;1.43;;;19.10;27.40;;;19.92;21.05;99369.59;4929634;28;124048;-89
2022/04/17 12:54:46;;;;;;;1.87;1.40;;;19.20;27.60;;;20.04;20.63;99361.06;4930014;28;123864;-91
2022/04/17 12:57:20;;;;;;;1.47;1.37;;;19.40;27.60;;;20.09;20.75;99360.78;4913794;28;118355;-91
2022/04/17 12:59:51;;;;;;;1.83;1.30;;;19.40;27.40;;;20.19;20.91;99346.22;4915540;28;118772;-90
2022/04/17 13:02:25;;;;;;;1.80;1.70;;;19.50;27.50;;;20.25;20.21;99344.75;4922028;28;123839;-91
2022/04/17 13:04:59;;;;;;;1.90;1.40;;;19.60;27.50;;;20.27;20.18;99341.59;4940212;28;123550;-90
2022/04/17 13:07:34;;;;;;;1.77;1.37;;;19.60;26.80;;;20.35;20.51;99334.16;4944707;28;118787;-94
2022/04/17 13:10:06;;;;;;;2.93;1.80;;;19.70;27.30;;;20.51;20.37;99327.31;4911908;28;118055;-92
2022/04/17 13:12:37;;;;;;;2.57;1.53;;;19.80;27.30;;;20.70;19.90;99325.78;4893942;28;124037;-92
2022/04/17 13:15:07;;;;;;;2.57;1.80;;;20.00;27.00;;;20.76;19.18;99324.28;4892517;28;124695;-92
2022/04/17 13:17:48;;;;;;;1.50;1.20;;;20.00;25.70;;;20.74;20.07;99324.69;4926334;28;118635;-90
2022/04/17 13:20:18;;;;;;;1.80;1.37;;;20.10;26.70;;;20.90;20.13;99313.38;4926386;28;119433;-92
2022/04/17 13:22:47;;;;;;;1.60;1.10;;;20.20;26.90;;;21.10;20.28;99302.94;4890092;28;123981;-91
2022/04/17 13:25:16;;;;;;;2.43;1.40;;;20.30;27.00;;;21.29;19.42;99296.47;4906227;28;123008;-91
2022/04/17 13:27:43;;;;;;;1.60;1.30;;;20.50;26.60;;;21.39;18.82;99297.91;4925173;28;119289;-92
2022/04/17 13:30:12;;;;;;;2.20;1.60;;;20.60;25.80;;;21.46;19.24;99297.22;4912190;28;117762;-91
2022/04/17 13:32:39;;;;;;;2.80;1.50;;;20.70;25.90;;;21.52;18.52;99293.75;4911731;28;124117;-91
2022/04/17 13:35:07;;;;;;;1.43;1.33;;;20.80;25.30;;;21.59;18.46;99288.22;4911515;28;122993;-90
2022/04/17 13:40:19;;;;;;;1.50;1.20;;;20.90;25.00;;;21.82;18.48;99290.22;4888314;28;119505;-90
2022/04/17 13:42:46;;;;;;;1.90;1.23;;;21.10;25.50;;;22.02;18.94;99293.75;4870919;28;123204;-91
2022/04/17 13:45:14;;;;;;;1.93;1.37;;;21.20;25.70;;;22.16;18.52;99290.34;4891068;28;123911;-89
2022/04/17 13:47:41;;;;;;;2.37;1.53;;;21.40;25.40;;;22.30;18.43;99276.56;4858364;28;119701;-90
2022/04/17 13:50:10;;;;;;;1.70;1.33;;;21.50;25.60;;;22.44;18.04;99282.38;4871783;28;119960;-90
2022/04/17 13:52:37;;;;;;;2.60;1.60;;;21.60;25.10;;;22.54;18.00;99266.84;4887681;28;124104;-89
2022/04/17 13:55:05;;;;;;;2.90;1.40;;;21.70;25.00;;;22.65;17.79;99275.44;4872097;28;123248;-90
2022/04/17 13:57:32;;;;;;;2.00;1.63;;;21.90;24.90;;;22.71;17.61;99252.16;4888184;28;119066;-90
2022/04/17 13:59:59;;;;;;;1.37;1.27;;;21.90;24.80;;;22.80;17.64;99249.03;4895888;28;118969;-91
2022/04/17 14:02:26;;;;;;;1.20;1.10;;;22.10;24.60;;;22.92;17.74;99253.63;4870927;28;124005;-91
2022/04/17 14:04:52;;;;;;;1.50;1.10;;;22.20;24.60;;;23.08;17.95;99253.44;4886513;28;124927;-90
2022/04/17 14:07:19;;;;;;;1.03;0.93;;;22.30;24.70;;;23.21;17.50;99251.94;4871375;28;118670;-90
2022/04/17 14:09:46;;;;;;;1.07;0.90;;;22.40;24.60;;;23.38;17.61;99250.53;4888782;28;119034;-91
2022/04/17 14:12:12;;;;;;;4.03;1.50;;;22.60;24.70;;;23.52;16.80;99232.94;4883730;28;123983;-91
2022/04/17 14:14:40;;;;;;;1.77;1.20;;;22.70;23.90;;;23.55;16.79;99232.16;4896463;28;124263;-90
2022/04/17 14:17:08;;;;;;;2.17;1.40;;;22.80;23.60;;;23.58;16.59;99231.38;4910095;28;119517;-90
2022/04/17 14:19:36;;;;;;;2.67;1.80;;;22.90;23.20;;;23.61;16.15;99224.94;4906810;28;119317;-91
2022/04/17 14:22:04;;;;;;;1.90;1.30;;;22.90;22.80;;;23.60;16.29;99217.69;4925441;28;123217;-91
2022/04/17 14:24:31;;;;;;;2.50;1.40;;;22.90;22.80;;;23.65;16.13;99219.34;4911805;28;123367;-91
2022/04/17 14:26:57;;;;;;;1.93;1.33;;;23.00;22.90;;;23.69;16.27;99217.34;4928145;28;119841;-90